createdAt,value
2022-09-16T00:00:34.634Z,1002.71
2022-09-16T00:01:34.492Z,1002.76
2022-09-16T00:02:39.356Z,1002.76
2022-09-16T00:03:34.429Z,1002.76
2022-09-16T00:04:34.408Z,1002.75
2022-09-16T00:05:34.363Z,1002.72
2022-09-16T00:06:34.326Z,1002.70
2022-09-16T00:07:34.299Z,1002.75
2022-09-16T00:08:34.266Z,1002.75
2022-09-16T00:09:34.230Z,1002.80
2022-09-16T00:10:34.195Z,1002.77
2022-09-16T00:11:34.161Z,1002.76
2022-09-16T00:12:34.130Z,1002.77
2022-09-16T00:13:34.094Z,1002.72
2022-09-16T00:14:34.062Z,1002.72
2022-09-16T00:15:34.030Z,1002.72
2022-09-16T00:16:34.145Z,1002.71
2022-09-16T00:17:33.963Z,1002.70
2022-09-16T00:18:33.928Z,1002.68
2022-09-16T00:19:33.898Z,1002.68
2022-09-16T00:20:33.867Z,1002.69
2022-09-16T00:21:33.842Z,1002.67
2022-09-16T00:22:33.799Z,1002.70
2022-09-16T00:23:33.762Z,1002.67
2022-09-16T00:24:33.733Z,1002.67
2022-09-16T00:25:33.695Z,1002.67
2022-09-16T00:26:33.664Z,1002.67
2022-09-16T00:27:33.629Z,1002.67
2022-09-16T00:28:33.599Z,1002.67
2022-09-16T00:29:33.589Z,1002.67
2022-09-16T00:30:33.564Z,1002.69
2022-09-16T00:31:33.539Z,1002.65
2022-09-16T00:32:33.474Z,1002.67
2022-09-16T00:33:33.433Z,1002.69
2022-09-16T00:34:33.402Z,1002.65
2022-09-16T00:35:33.365Z,1002.63
2022-09-16T00:36:33.336Z,1002.61
2022-09-16T00:37:33.302Z,1002.66
2022-09-16T00:38:33.269Z,1002.63
2022-09-16T00:39:33.247Z,1002.60
2022-09-16T00:40:33.335Z,1002.61
2022-09-16T00:41:33.194Z,1002.59
2022-09-16T00:42:33.134Z,1002.62
2022-09-16T00:43:33.115Z,1002.65
2022-09-16T00:44:33.102Z,1002.63
2022-09-16T00:45:33.045Z,1002.59
2022-09-16T00:46:33.038Z,1002.60
2022-09-16T00:47:32.971Z,1002.62
2022-09-16T00:48:32.953Z,1002.64
2022-09-16T00:49:32.903Z,1002.63
2022-09-16T00:50:32.870Z,1002.63
2022-09-16T00:51:32.841Z,1002.68
2022-09-16T00:52:32.807Z,1002.65
2022-09-16T00:53:32.772Z,1002.64
2022-09-16T00:54:32.740Z,1002.64
2022-09-16T00:55:32.709Z,1002.62
2022-09-16T00:56:32.675Z,1002.65
2022-09-16T00:57:32.640Z,1002.67
2022-09-16T00:58:32.609Z,1002.70
2022-09-16T00:59:32.586Z,1002.74
2022-09-16T01:00:32.662Z,1002.75
2022-09-16T01:01:32.660Z,1002.72
2022-09-16T01:02:32.482Z,1002.74
2022-09-16T01:03:32.445Z,1002.68
2022-09-16T01:04:32.420Z,1002.75
2022-09-16T01:05:32.376Z,1002.69
2022-09-16T01:06:32.346Z,1002.68
2022-09-16T01:07:32.313Z,1002.71
2022-09-16T01:08:32.278Z,1002.69
2022-09-16T01:09:32.244Z,1002.67
2022-09-16T01:10:32.210Z,1002.68
2022-09-16T01:11:32.179Z,1002.67
2022-09-16T01:12:32.144Z,1002.65
2022-09-16T01:13:32.110Z,1002.64
2022-09-16T01:14:32.078Z,1002.62
2022-09-16T01:15:32.044Z,1002.58
2022-09-16T01:16:32.063Z,1002.60
2022-09-16T01:17:31.975Z,1002.59
2022-09-16T01:18:31.945Z,1002.62
2022-09-16T01:19:31.912Z,1002.61
2022-09-16T01:20:31.889Z,1002.61
2022-09-16T01:21:31.844Z,1002.57
2022-09-16T01:22:31.816Z,1002.62
2022-09-16T01:23:31.779Z,1002.61
2022-09-16T01:24:31.748Z,1002.66
2022-09-16T01:25:31.711Z,1002.65
2022-09-16T01:26:31.682Z,1002.66
2022-09-16T01:27:31.646Z,1002.69
2022-09-16T01:28:31.618Z,1002.65
2022-09-16T01:29:31.581Z,1002.66
2022-09-16T01:30:31.555Z,1002.67
2022-09-16T01:31:31.575Z,1002.66
2022-09-16T01:32:31.482Z,1002.65
2022-09-16T01:33:31.449Z,1002.68
2022-09-16T01:34:31.419Z,1002.72
2022-09-16T01:35:31.383Z,1002.74
2022-09-16T01:36:31.358Z,1002.71
2022-09-16T01:37:31.316Z,1002.65
2022-09-16T01:38:31.284Z,1002.64
2022-09-16T01:39:31.250Z,1002.61
2022-09-16T01:40:31.283Z,1002.64
2022-09-16T01:41:31.188Z,1002.66
2022-09-16T01:42:31.152Z,1002.61
2022-09-16T01:43:31.116Z,1002.58
2022-09-16T01:44:31.081Z,1002.59
2022-09-16T01:45:31.054Z,1002.60
2022-09-16T01:46:31.068Z,1002.60
2022-09-16T01:47:30.985Z,1002.55
2022-09-16T01:48:30.952Z,1002.58
2022-09-16T01:49:30.920Z,1002.58
2022-09-16T01:50:30.886Z,1002.62
2022-09-16T01:51:30.852Z,1002.60
2022-09-16T01:52:30.824Z,1002.60
2022-09-16T01:53:30.786Z,1002.61
2022-09-16T01:54:30.748Z,1002.61
2022-09-16T01:55:30.718Z,1002.63
2022-09-16T01:56:30.682Z,1002.58
2022-09-16T01:57:30.651Z,1002.60
2022-09-16T01:58:30.620Z,1002.56
2022-09-16T01:59:30.586Z,1002.55
2022-09-16T02:00:30.548Z,1002.57
2022-09-16T02:01:30.552Z,1002.56
2022-09-16T02:02:30.574Z,1002.57
2022-09-16T02:03:30.451Z,1002.55
2022-09-16T02:04:30.415Z,1002.55
2022-09-16T02:05:30.386Z,1002.58
2022-09-16T02:06:30.349Z,1002.61
2022-09-16T02:07:30.319Z,1002.56
2022-09-16T02:08:30.287Z,1002.55
2022-09-16T02:09:30.255Z,1002.57
2022-09-16T02:10:30.216Z,1002.55
2022-09-16T02:11:30.185Z,1002.53
2022-09-16T02:12:30.153Z,1002.51
2022-09-16T02:13:30.118Z,1002.51
2022-09-16T02:14:30.085Z,1002.55
2022-09-16T02:15:30.052Z,1002.53
2022-09-16T02:16:30.017Z,1002.48
2022-09-16T02:17:29.985Z,1002.50
2022-09-16T02:18:29.947Z,1002.48
2022-09-16T02:19:29.918Z,1002.48
2022-09-16T02:20:29.884Z,1002.47
2022-09-16T02:21:29.855Z,1002.51
2022-09-16T02:22:29.823Z,1002.47
2022-09-16T02:23:29.783Z,1002.51
2022-09-16T02:24:29.752Z,1002.51
2022-09-16T02:25:29.716Z,1002.49
2022-09-16T02:26:29.683Z,1002.50
2022-09-16T02:27:29.674Z,1002.48
2022-09-16T02:28:29.624Z,1002.48
2022-09-16T02:29:29.603Z,1002.51
2022-09-16T02:30:29.551Z,1002.45
2022-09-16T02:31:29.598Z,1002.47
2022-09-16T02:32:29.482Z,1002.47
2022-09-16T02:33:29.452Z,1002.47
2022-09-16T02:34:29.415Z,1002.46
2022-09-16T02:35:29.386Z,1002.47
2022-09-16T02:36:29.348Z,1002.45
2022-09-16T02:37:29.325Z,1002.46
2022-09-16T02:38:29.290Z,1002.46
2022-09-16T02:39:29.263Z,1002.47
2022-09-16T02:40:29.309Z,1002.48
2022-09-16T02:41:29.186Z,1002.48
2022-09-16T02:42:29.152Z,1002.48
2022-09-16T02:43:29.141Z,1002.45
2022-09-16T02:44:29.083Z,1002.46
2022-09-16T02:45:29.054Z,1002.43
2022-09-16T02:46:29.039Z,1002.45
2022-09-16T02:47:28.985Z,1002.46
2022-09-16T02:48:28.952Z,1002.45
2022-09-16T02:49:28.920Z,1002.45
2022-09-16T02:50:28.885Z,1002.47
2022-09-16T02:51:28.852Z,1002.47
2022-09-16T02:52:28.821Z,1002.50
2022-09-16T02:53:28.784Z,1002.46
2022-09-16T02:54:28.749Z,1002.45
2022-09-16T02:55:28.720Z,1002.44
2022-09-16T02:56:28.695Z,1002.42
2022-09-16T02:57:28.653Z,1002.42
2022-09-16T02:58:28.618Z,1002.44
2022-09-16T02:59:28.590Z,1002.42
2022-09-16T03:00:28.555Z,1002.44
2022-09-16T03:01:28.548Z,1002.39
2022-09-16T03:02:28.520Z,1002.44
2022-09-16T03:03:28.457Z,1002.45
2022-09-16T03:04:28.419Z,1002.46
2022-09-16T03:05:28.389Z,1002.46
2022-09-16T03:06:28.353Z,1002.46
2022-09-16T03:07:28.323Z,1002.40
2022-09-16T03:08:28.286Z,1002.41
2022-09-16T03:09:28.252Z,1002.39
2022-09-16T03:10:28.217Z,1002.36
2022-09-16T03:11:30.402Z,1002.37
2022-09-16T03:12:28.155Z,1002.38
2022-09-16T03:13:28.123Z,1002.36
2022-09-16T03:14:28.087Z,1002.37
2022-09-16T03:15:28.056Z,1002.36
2022-09-16T03:16:28.144Z,1002.32
2022-09-16T03:17:27.988Z,1002.32
2022-09-16T03:18:27.953Z,1002.34
2022-09-16T03:19:27.922Z,1002.34
2022-09-16T03:20:27.916Z,1002.35
2022-09-16T03:21:27.856Z,1002.36
2022-09-16T03:22:27.823Z,1002.32
2022-09-16T03:23:27.800Z,1002.30
2022-09-16T03:24:27.754Z,1002.28
2022-09-16T03:25:27.723Z,1002.24
2022-09-16T03:26:27.687Z,1002.24
2022-09-16T03:27:27.655Z,1002.22
2022-09-16T03:28:27.628Z,1002.24
2022-09-16T03:29:27.588Z,1002.27
2022-09-16T03:30:27.553Z,1002.25
2022-09-16T03:31:27.567Z,1002.21
2022-09-16T03:32:27.490Z,1002.23
2022-09-16T03:33:27.453Z,1002.23
2022-09-16T03:34:27.421Z,1002.22
2022-09-16T03:35:27.386Z,1002.21
2022-09-16T03:36:27.356Z,1002.23
2022-09-16T03:37:27.321Z,1002.29
2022-09-16T03:38:27.289Z,1002.25
2022-09-16T03:39:27.253Z,1002.30
2022-09-16T03:40:27.306Z,1002.27
2022-09-16T03:41:27.187Z,1002.27
2022-09-16T03:42:27.155Z,1002.26
2022-09-16T03:43:27.122Z,1002.26
2022-09-16T03:44:27.088Z,1002.22
2022-09-16T03:45:27.055Z,1002.23
2022-09-16T03:46:27.036Z,1002.21
2022-09-16T03:47:26.989Z,1002.24
2022-09-16T03:48:26.950Z,1002.22
2022-09-16T03:49:26.917Z,1002.18
2022-09-16T03:50:26.903Z,1002.16
2022-09-16T03:51:26.852Z,1002.17
2022-09-16T03:52:26.822Z,1002.16
2022-09-16T03:53:26.787Z,1002.11
2022-09-16T03:54:26.752Z,1002.15
2022-09-16T03:55:26.721Z,1002.13
2022-09-16T03:56:26.685Z,1002.16
2022-09-16T03:57:26.656Z,1002.14
2022-09-16T03:58:26.623Z,1002.12
2022-09-16T03:59:26.585Z,1002.11
2022-09-16T04:00:26.552Z,1002.09
2022-09-16T04:01:26.576Z,1002.09
2022-09-16T04:02:26.505Z,1002.07
2022-09-16T04:03:31.193Z,1002.07
2022-09-16T04:04:26.417Z,1002.11
2022-09-16T04:05:26.387Z,1002.12
2022-09-16T04:06:26.351Z,1002.06
2022-09-16T04:07:26.321Z,1002.06
2022-09-16T04:08:26.285Z,1002.10
2022-09-16T04:09:26.249Z,1002.06
2022-09-16T04:10:26.213Z,1002.03
2022-09-16T04:11:26.181Z,1002.01
2022-09-16T04:12:26.149Z,1002.05
2022-09-16T04:13:26.115Z,1002.03
2022-09-16T04:14:26.081Z,1002.02
2022-09-16T04:15:26.050Z,1002.03
2022-09-16T04:16:26.072Z,1002.02
2022-09-16T04:17:25.980Z,1002.02
2022-09-16T04:18:25.944Z,1002.01
2022-09-16T04:19:25.911Z,1002.06
2022-09-16T04:20:25.877Z,1002.05
2022-09-16T04:21:25.847Z,1002.01
2022-09-16T04:22:25.810Z,1002.01
2022-09-16T04:23:25.777Z,1001.98
2022-09-16T04:24:25.744Z,1001.97
2022-09-16T04:25:25.710Z,1001.96
2022-09-16T04:26:25.677Z,1001.93
2022-09-16T04:27:25.646Z,1001.94
2022-09-16T04:28:25.608Z,1001.95
2022-09-16T04:29:25.574Z,1001.97
2022-09-16T04:30:25.541Z,1001.94
2022-09-16T04:31:25.560Z,1001.92
2022-09-16T04:32:25.478Z,1001.93
2022-09-16T04:33:25.442Z,1001.96
2022-09-16T04:34:25.402Z,1001.98
2022-09-16T04:35:25.374Z,1001.95
2022-09-16T04:36:25.346Z,1001.93
2022-09-16T04:37:25.309Z,1001.96
2022-09-16T04:38:25.270Z,1001.96
2022-09-16T04:39:25.240Z,1001.99
2022-09-16T04:40:25.255Z,1002.01
2022-09-16T04:41:25.173Z,1002.02
2022-09-16T04:42:25.140Z,1002.03
2022-09-16T04:43:25.101Z,1002.06
2022-09-16T04:44:25.068Z,1002.07
2022-09-16T04:45:25.032Z,1002.06
2022-09-16T04:46:25.067Z,1002.07
2022-09-16T04:47:24.965Z,1002.10
2022-09-16T04:48:24.931Z,1002.14
2022-09-16T04:49:24.898Z,1002.14
2022-09-16T04:50:24.867Z,1002.17
2022-09-16T04:51:24.858Z,1002.19
2022-09-16T04:52:24.796Z,1002.20
2022-09-16T04:53:24.764Z,1002.23
2022-09-16T04:54:24.727Z,1002.21
2022-09-16T04:55:24.693Z,1002.18
2022-09-16T04:56:24.667Z,1002.12
2022-09-16T04:57:24.625Z,1002.11
2022-09-16T04:58:24.592Z,1002.11
2022-09-16T04:59:24.563Z,1002.07
2022-09-16T05:00:24.523Z,1002.12
2022-09-16T05:01:24.537Z,1002.14
2022-09-16T05:02:24.459Z,1002.11
2022-09-16T05:03:24.583Z,1002.11
2022-09-16T05:04:24.393Z,1002.12
2022-09-16T05:05:24.355Z,1002.14
2022-09-16T05:06:24.325Z,1002.10
2022-09-16T05:07:24.288Z,1002.09
2022-09-16T05:08:24.254Z,1002.06
2022-09-16T05:09:24.220Z,1002.05
2022-09-16T05:10:24.183Z,1002.10
2022-09-16T05:11:24.153Z,1002.11
2022-09-16T05:12:24.119Z,1002.12
2022-09-16T05:13:24.083Z,1002.10
2022-09-16T05:14:24.049Z,1002.10
2022-09-16T05:15:24.014Z,1002.10
2022-09-16T05:16:24.035Z,1002.08
2022-09-16T05:17:46.995Z,1002.10
2022-09-16T05:18:23.919Z,1002.08
2022-09-16T05:19:23.881Z,1002.06
2022-09-16T05:20:23.946Z,1002.06
2022-09-16T05:21:23.812Z,1002.08
2022-09-16T05:22:23.778Z,1002.06
2022-09-16T05:23:23.759Z,1002.05
2022-09-16T05:24:23.714Z,1002.05
2022-09-16T05:25:23.678Z,1002.06
2022-09-16T05:26:23.682Z,1002.06
2022-09-16T05:27:23.612Z,1002.07
2022-09-16T05:28:23.574Z,1002.08
2022-09-16T05:29:23.540Z,1002.13
2022-09-16T05:30:26.047Z,1002.10
2022-09-16T05:31:23.572Z,1002.13
2022-09-16T05:32:23.437Z,1002.09
2022-09-16T05:33:23.430Z,1002.12
2022-09-16T05:34:23.380Z,1002.09
2022-09-16T05:35:23.336Z,1002.10
2022-09-16T05:36:23.404Z,1002.13
2022-09-16T05:37:23.268Z,1002.18
2022-09-16T05:38:23.235Z,1002.15
2022-09-16T05:39:24.817Z,1002.17
2022-09-16T05:40:23.251Z,1002.20
2022-09-16T05:41:23.136Z,1002.20
2022-09-16T05:42:23.101Z,1002.20
2022-09-16T05:43:23.067Z,1002.19
2022-09-16T05:44:23.033Z,1002.19
2022-09-16T05:45:26.577Z,1002.19
2022-09-16T05:46:23.093Z,1002.21
2022-09-16T05:47:22.944Z,1002.22
2022-09-16T05:48:22.897Z,1002.21
2022-09-16T05:49:22.864Z,1002.19
2022-09-16T05:50:22.829Z,1002.18
2022-09-16T05:51:22.798Z,1002.21
2022-09-16T05:52:22.868Z,1002.18
2022-09-16T05:53:22.728Z,1002.19
2022-09-16T05:54:22.693Z,1002.18
2022-09-16T05:55:22.662Z,1002.17
2022-09-16T05:56:22.630Z,1002.17
2022-09-16T05:57:22.592Z,1002.22
2022-09-16T05:58:22.563Z,1002.20
2022-09-16T05:59:22.530Z,1002.21
2022-09-16T06:00:22.490Z,1002.20
2022-09-16T06:01:22.473Z,1002.22
2022-09-16T06:02:22.453Z,1002.24
2022-09-16T06:03:22.392Z,1002.24
2022-09-16T06:04:22.378Z,1002.20
2022-09-16T06:05:22.320Z,1002.17
2022-09-16T06:06:22.290Z,1002.17
2022-09-16T06:07:22.257Z,1002.19
2022-09-16T06:08:22.324Z,1002.24
2022-09-16T06:09:22.190Z,1002.23
2022-09-16T06:10:22.151Z,1002.22
2022-09-16T06:11:22.122Z,1002.24
2022-09-16T06:12:22.086Z,1002.24
2022-09-16T06:13:22.049Z,1002.26
2022-09-16T06:14:22.015Z,1002.27
2022-09-16T06:15:21.982Z,1002.29
2022-09-16T06:16:21.951Z,1002.26
2022-09-16T06:17:21.915Z,1002.29
2022-09-16T06:18:21.890Z,1002.27
2022-09-16T06:19:21.849Z,1002.30
2022-09-16T06:20:21.815Z,1002.28
2022-09-16T06:21:21.781Z,1002.26
2022-09-16T06:22:21.745Z,1002.26
2022-09-16T06:23:21.711Z,1002.26
2022-09-16T06:24:21.782Z,1002.26
2022-09-16T06:25:21.645Z,1002.24
2022-09-16T06:26:21.611Z,1002.31
2022-09-16T06:27:21.592Z,1002.33
2022-09-16T06:28:21.547Z,1002.32
2022-09-16T06:29:21.517Z,1002.29
2022-09-16T06:30:21.482Z,1002.33
2022-09-16T06:31:21.481Z,1002.31
2022-09-16T06:32:21.412Z,1002.26
2022-09-16T06:33:21.383Z,1002.28
2022-09-16T06:34:21.344Z,1002.24
2022-09-16T06:35:21.310Z,1002.22
2022-09-16T06:36:21.279Z,1002.23
2022-09-16T06:37:21.242Z,1002.24
2022-09-16T06:38:21.209Z,1002.26
2022-09-16T06:39:21.173Z,1002.28
2022-09-16T06:40:21.286Z,1002.26
2022-09-16T06:41:21.108Z,1002.25
2022-09-16T06:42:21.065Z,1002.26
2022-09-16T06:43:21.038Z,1002.25
2022-09-16T06:44:21.001Z,1002.28
2022-09-16T06:45:20.966Z,1002.26
2022-09-16T06:46:20.970Z,1002.26
2022-09-16T06:47:20.904Z,1002.31
2022-09-16T06:48:20.866Z,1002.30
2022-09-16T06:49:20.836Z,1002.29
2022-09-16T06:50:20.804Z,1002.28
2022-09-16T06:51:20.768Z,1002.29
2022-09-16T06:52:20.736Z,1002.34
2022-09-16T06:53:20.702Z,1002.30
2022-09-16T06:54:20.674Z,1002.34
2022-09-16T06:55:20.637Z,1002.32
2022-09-16T06:56:20.721Z,1002.31
2022-09-16T06:57:20.565Z,1002.28
2022-09-16T06:58:20.528Z,1002.25
2022-09-16T06:59:20.496Z,1002.29
2022-09-16T07:00:20.467Z,1002.30
2022-09-16T07:01:20.481Z,1002.27
2022-09-16T07:02:20.421Z,1002.27
2022-09-16T07:03:20.366Z,1002.25
2022-09-16T07:04:20.328Z,1002.23
2022-09-16T07:05:20.298Z,1002.26
2022-09-16T07:06:20.258Z,1002.27
2022-09-16T07:07:20.226Z,1002.28
2022-09-16T07:08:20.192Z,1002.29
2022-09-16T07:09:20.162Z,1002.28
2022-09-16T07:10:20.123Z,1002.27
2022-09-16T07:11:20.107Z,1002.28
2022-09-16T07:12:20.161Z,1002.29
2022-09-16T07:13:20.027Z,1002.29
2022-09-16T07:14:19.994Z,1002.31
2022-09-16T07:15:19.954Z,1002.37
2022-09-16T07:16:20.007Z,1002.30
2022-09-16T07:17:19.891Z,1002.35
2022-09-16T07:18:19.853Z,1002.35
2022-09-16T07:19:19.828Z,1002.37
2022-09-16T07:20:19.797Z,1002.40
2022-09-16T07:21:19.764Z,1002.34
2022-09-16T07:22:19.724Z,1002.35
2022-09-16T07:23:19.688Z,1002.38
2022-09-16T07:24:19.659Z,1002.40
2022-09-16T07:25:19.619Z,1002.37
2022-09-16T07:26:19.586Z,1002.36
2022-09-16T07:27:19.558Z,1002.39
2022-09-16T07:28:19.628Z,1002.35
2022-09-16T07:29:19.486Z,1002.35
2022-09-16T07:30:19.453Z,1002.39
2022-09-16T07:31:19.481Z,1002.38
2022-09-16T07:32:19.387Z,1002.36
2022-09-16T07:33:19.358Z,1002.38
2022-09-16T07:34:19.319Z,1002.36
2022-09-16T07:35:19.288Z,1002.42
2022-09-16T07:36:19.259Z,1002.39
2022-09-16T07:37:19.239Z,1002.42
2022-09-16T07:38:19.186Z,1002.39
2022-09-16T07:39:19.155Z,1002.40
2022-09-16T07:40:19.166Z,1002.39
2022-09-16T07:41:19.091Z,1002.43
2022-09-16T07:42:19.050Z,1002.43
2022-09-16T07:43:19.036Z,1002.43
2022-09-16T07:44:19.093Z,1002.47
2022-09-16T07:45:18.962Z,1002.40
2022-09-16T07:46:18.985Z,1002.38
2022-09-16T07:47:22.086Z,1002.41
2022-09-16T07:48:18.864Z,1002.43
2022-09-16T07:49:18.821Z,1002.40
2022-09-16T07:50:18.784Z,1002.39
2022-09-16T07:51:18.755Z,1002.45
2022-09-16T07:52:18.719Z,1002.50
2022-09-16T07:53:18.683Z,1002.50
2022-09-16T07:54:18.655Z,1002.51
2022-09-16T07:55:18.618Z,1002.52
2022-09-16T07:56:18.582Z,1002.56
2022-09-16T07:57:18.551Z,1002.59
2022-09-16T07:58:18.518Z,1002.56
2022-09-16T07:59:19.302Z,1002.61
2022-09-16T08:00:18.547Z,1002.53
2022-09-16T08:01:18.468Z,1002.63
2022-09-16T08:02:18.524Z,1002.61
2022-09-16T08:03:18.350Z,1002.56
2022-09-16T08:04:18.317Z,1002.57
2022-09-16T08:05:18.290Z,1002.64
2022-09-16T08:06:18.255Z,1002.64
2022-09-16T08:07:18.220Z,1002.61
2022-09-16T08:08:18.185Z,1002.65
2022-09-16T08:10:18.120Z,1002.67
2022-09-16T08:11:18.084Z,1002.70
2022-09-16T08:12:18.056Z,1002.84
2022-09-16T08:13:18.022Z,1002.81
2022-09-16T08:14:17.988Z,1002.74
2022-09-16T08:16:18.092Z,1002.77
2022-09-16T08:17:17.885Z,1002.76
2022-09-16T08:18:17.861Z,1002.85
2022-09-16T08:19:17.821Z,1002.82
2022-09-16T08:20:17.789Z,1002.83
2022-09-16T08:21:17.752Z,1002.83
2022-09-16T08:22:17.722Z,1002.84
2022-09-16T08:23:17.687Z,1002.86
2022-09-16T08:24:17.654Z,1002.94
2022-09-16T08:25:17.623Z,1002.87
2022-09-16T08:26:17.585Z,1002.88
2022-09-16T08:27:17.555Z,1002.88
2022-09-16T08:28:17.520Z,1002.84
2022-09-16T08:29:18.098Z,1002.86
2022-09-16T08:30:17.452Z,1002.87
2022-09-16T08:31:17.475Z,1002.86
2022-09-16T08:32:17.486Z,1002.90
2022-09-16T08:33:17.356Z,1002.86
2022-09-16T08:34:17.339Z,1002.89
2022-09-16T08:35:17.296Z,1002.86
2022-09-16T08:36:17.260Z,1002.85
2022-09-16T08:37:17.223Z,1002.91
2022-09-16T08:38:17.193Z,1002.90
2022-09-16T08:39:17.159Z,1002.90
2022-09-16T08:40:17.230Z,1002.88
2022-09-16T08:41:17.090Z,1002.90
2022-09-16T08:42:18.281Z,1002.92
2022-09-16T08:43:17.025Z,1002.93
2022-09-16T08:44:16.989Z,1002.93
2022-09-16T08:45:16.956Z,1002.92
2022-09-16T08:46:17.041Z,1003.00
2022-09-16T08:47:16.892Z,1002.94
2022-09-16T08:48:16.963Z,1002.95
2022-09-16T08:49:16.862Z,1002.97
2022-09-16T08:50:16.791Z,1003.00
2022-09-16T08:51:16.758Z,1003.00
2022-09-16T08:52:16.726Z,1003.00
2022-09-16T08:53:16.693Z,1003.06
2022-09-16T08:54:16.660Z,1003.07
2022-09-16T08:55:16.633Z,1003.03
2022-09-16T08:56:16.598Z,1003.03
2022-09-16T08:57:16.562Z,1003.01
2022-09-16T08:58:16.533Z,1002.97
2022-09-16T08:59:16.505Z,1003.05
2022-09-16T09:00:16.466Z,1003.03
2022-09-16T09:01:16.527Z,1003.07
2022-09-16T09:02:16.951Z,1003.06
2022-09-16T09:03:16.370Z,1003.01
2022-09-16T09:04:16.445Z,1003.09
2022-09-16T09:05:16.302Z,1003.01
2022-09-16T09:06:16.269Z,1003.03
2022-09-16T09:07:16.231Z,1003.05
2022-09-16T09:08:16.202Z,1003.01
2022-09-16T09:09:16.166Z,1003.06
2022-09-16T09:10:16.129Z,1002.99
2022-09-16T09:11:16.097Z,1003.09
2022-09-16T09:12:16.903Z,1003.08
2022-09-16T09:13:16.739Z,1003.05
2022-09-16T09:14:16.005Z,1003.05
2022-09-16T09:15:15.972Z,1003.02
2022-09-16T09:16:15.948Z,1003.03
2022-09-16T09:17:15.905Z,1003.03
2022-09-16T09:18:16.304Z,1003.08
2022-09-16T09:19:15.844Z,1003.04
2022-09-16T09:20:15.919Z,1003.09
2022-09-16T09:21:15.779Z,1003.04
2022-09-16T09:22:15.737Z,1003.06
2022-09-16T09:23:15.709Z,1003.09
2022-09-16T09:24:15.683Z,1003.16
2022-09-16T09:25:15.641Z,1003.07
2022-09-16T09:26:15.606Z,1003.08
2022-09-16T09:27:15.575Z,1003.13
2022-09-16T09:28:15.546Z,1003.08
2022-09-16T09:29:15.511Z,1003.09
2022-09-16T09:30:15.475Z,1003.11
2022-09-16T09:31:15.482Z,1003.08
2022-09-16T09:32:15.429Z,1003.06
2022-09-16T09:33:34.545Z,1003.07
2022-09-16T09:34:15.348Z,1003.08
2022-09-16T09:35:15.315Z,1003.08
2022-09-16T09:36:15.392Z,1003.05
2022-09-16T09:37:15.251Z,1003.04
2022-09-16T09:38:15.217Z,1003.04
2022-09-16T09:39:15.186Z,1003.08
2022-09-16T09:40:15.259Z,1003.03
2022-09-16T09:41:15.121Z,1003.03
2022-09-16T09:42:15.090Z,1003.01
2022-09-16T09:43:15.055Z,1003.05
2022-09-16T09:44:15.026Z,1003.02
2022-09-16T09:45:14.988Z,1003.04
2022-09-16T09:46:14.974Z,1003.08
2022-09-16T09:47:14.942Z,1003.07
2022-09-16T09:48:14.925Z,1003.00
2022-09-16T09:49:14.863Z,1003.00
2022-09-16T09:50:14.829Z,1002.97
2022-09-16T09:51:14.815Z,1002.96
2022-09-16T09:52:14.870Z,1003.01
2022-09-16T09:53:14.733Z,1003.06
2022-09-16T09:54:14.698Z,1002.98
2022-09-16T09:55:16.350Z,1003.02
2022-09-16T09:56:14.633Z,1003.02
2022-09-16T09:57:14.602Z,1002.98
2022-09-16T09:58:14.588Z,1003.00
2022-09-16T09:59:14.533Z,1003.03
2022-09-16T10:00:14.499Z,1002.98
2022-09-16T10:01:14.505Z,1003.04
2022-09-16T10:02:14.516Z,1002.95
2022-09-16T10:03:14.590Z,1002.97
2022-09-16T10:04:14.373Z,1003.04
2022-09-16T10:05:14.343Z,1003.02
2022-09-16T10:06:14.311Z,1003.00
2022-09-16T10:07:14.287Z,1003.00
2022-09-16T10:08:16.469Z,1003.00
2022-09-16T10:09:14.213Z,1002.95
2022-09-16T10:10:14.179Z,1003.04
2022-09-16T10:11:14.148Z,1003.01
2022-09-16T10:12:14.111Z,1002.99
2022-09-16T10:13:14.083Z,1003.01
2022-09-16T10:14:14.060Z,1003.00
2022-09-16T10:15:14.021Z,1003.06
2022-09-16T10:16:14.058Z,1003.03
2022-09-16T10:17:13.963Z,1003.00
2022-09-16T10:18:13.918Z,1003.07
2022-09-16T10:19:13.887Z,1003.01
2022-09-16T10:20:13.852Z,1003.03
2022-09-16T10:21:13.822Z,1003.01
2022-09-16T10:22:13.787Z,1003.00
2022-09-16T10:23:13.759Z,1002.96
2022-09-16T10:24:13.839Z,1002.96
2022-09-16T10:25:13.694Z,1003.04
2022-09-16T10:26:13.659Z,1002.95
2022-09-16T10:27:13.629Z,1002.98
2022-09-16T10:28:13.599Z,1002.94
2022-09-16T10:29:13.564Z,1002.93
2022-09-16T10:30:13.570Z,1002.87
2022-09-16T10:31:13.535Z,1002.87
2022-09-16T10:32:13.492Z,1002.86
2022-09-16T10:33:13.436Z,1002.90
2022-09-16T10:34:13.404Z,1002.90
2022-09-16T10:35:13.373Z,1002.84
2022-09-16T10:36:13.343Z,1002.84
2022-09-16T10:37:13.311Z,1002.87
2022-09-16T10:38:13.279Z,1002.89
2022-09-16T10:39:13.245Z,1002.91
2022-09-16T10:40:13.383Z,1002.90
2022-09-16T10:41:13.178Z,1002.88
2022-09-16T10:42:13.143Z,1002.84
2022-09-16T10:43:13.114Z,1002.88
2022-09-16T10:44:17.194Z,1002.92
2022-09-16T10:45:13.052Z,1002.94
2022-09-16T10:46:13.114Z,1002.91
2022-09-16T10:47:13.005Z,1002.85
2022-09-16T10:48:12.957Z,1002.86
2022-09-16T10:49:12.928Z,1002.82
2022-09-16T10:50:12.892Z,1002.87
2022-09-16T10:51:12.858Z,1002.79
2022-09-16T10:52:12.828Z,1002.89
2022-09-16T10:53:12.796Z,1002.84
2022-09-16T10:54:12.773Z,1002.81
2022-09-16T10:55:12.731Z,1002.86
2022-09-16T10:56:12.814Z,1002.82
2022-09-16T10:57:12.676Z,1002.83
2022-09-16T10:58:12.636Z,1002.83
2022-09-16T10:59:12.605Z,1002.81
2022-09-16T11:00:12.575Z,1002.75
2022-09-16T11:01:13.382Z,1002.86
2022-09-16T11:02:12.893Z,1002.82
2022-09-16T11:03:12.483Z,1002.89
2022-09-16T11:04:12.445Z,1002.89
2022-09-16T11:05:12.428Z,1002.94
2022-09-16T11:06:12.388Z,1002.85
2022-09-16T11:07:12.352Z,1002.89
2022-09-16T11:08:12.348Z,1002.78
2022-09-16T11:09:12.319Z,1002.82
2022-09-16T11:10:12.261Z,1002.92
2022-09-16T11:11:12.230Z,1002.78
2022-09-16T11:12:12.311Z,1002.87
2022-09-16T11:13:12.168Z,1002.79
2022-09-16T11:14:12.139Z,1002.77
2022-09-16T11:15:12.116Z,1002.70
2022-09-16T11:16:12.117Z,1002.76
2022-09-16T11:17:12.051Z,1002.85
2022-09-16T11:18:12.014Z,1002.82
2022-09-16T11:19:11.979Z,1002.81
2022-09-16T11:20:11.950Z,1002.82
2022-09-16T11:21:11.942Z,1002.83
2022-09-16T11:22:11.889Z,1002.87
2022-09-16T11:23:11.858Z,1002.70
2022-09-16T11:24:11.823Z,1002.64
2022-09-16T11:25:11.793Z,1002.61
2022-09-16T11:26:11.762Z,1002.61
2022-09-16T11:27:11.737Z,1002.70
2022-09-16T11:28:11.818Z,1002.65
2022-09-16T11:29:11.680Z,1002.65
2022-09-16T11:30:11.643Z,1002.63
2022-09-16T11:31:11.772Z,1002.68
2022-09-16T11:32:11.581Z,1002.65
2022-09-16T11:33:11.799Z,1002.78
2022-09-16T11:34:12.122Z,1002.67
2022-09-16T11:35:11.488Z,1002.69
2022-09-16T11:36:11.458Z,1002.66
2022-09-16T11:37:11.425Z,1002.64
2022-09-16T11:38:11.397Z,1002.68
2022-09-16T11:39:11.367Z,1002.72
2022-09-16T11:40:11.421Z,1002.72
2022-09-16T11:41:11.315Z,1002.69
2022-09-16T11:42:11.265Z,1002.75
2022-09-16T11:43:11.279Z,1002.74
2022-09-16T11:44:11.320Z,1002.74
2022-09-16T11:45:11.189Z,1002.76
2022-09-16T11:46:11.177Z,1002.81
2022-09-16T11:47:11.115Z,1002.85
2022-09-16T11:48:11.090Z,1002.88
2022-09-16T11:49:11.052Z,1002.93
2022-09-16T11:50:11.069Z,1003.01
2022-09-16T11:51:10.989Z,1003.03
2022-09-16T11:52:10.954Z,1003.08
2022-09-16T11:53:12.252Z,1003.07
2022-09-16T11:54:10.925Z,1003.06
2022-09-16T11:55:10.862Z,1003.02
2022-09-16T11:56:10.828Z,1003.14
2022-09-16T11:57:13.208Z,1003.15
2022-09-16T11:58:10.765Z,1003.15
2022-09-16T11:59:10.747Z,1003.22
2022-09-16T12:00:10.888Z,1003.17
2022-09-16T12:01:10.710Z,1003.15
2022-09-16T12:02:10.681Z,1003.18
2022-09-16T12:03:10.664Z,1003.20
2022-09-16T12:04:10.578Z,1003.16
2022-09-16T12:05:10.545Z,1003.23
2022-09-16T12:06:10.506Z,1003.13
2022-09-16T12:07:10.571Z,1003.19